Time;durP1;ratioP1;P1;durP2;ratioP2;P2;SDS_P1;SDS_P2;PMS_P1;PMS_P2;Temp;Humidity;BMP_temperature;BMP_pressure;BME280_temperature;BME280_humidity;BME280_pressure;Samples;Min_cycle;Max_cycle;Signal;HPM_P1;HPM_P2
2023/11/27 00:00:01;;;;;;;38.03;21.17;;;14.20;58.50;;;;;;344348;28;1066;-56
2023/11/27 00:00:12;;;;;;;36.72;21.70;;;14.20;58.50;;;;;;344359;28;1129;-58
2023/11/27 00:00:24;;;;;;;36.35;21.80;;;14.20;58.50;;;;;;344390;28;972;-57
2023/11/27 00:00:35;;;;;;;34.38;21.25;;;14.20;58.50;;;;;;344356;28;908;-58
2023/11/27 00:00:46;;;;;;;35.38;21.55;;;14.20;58.50;;;;;;344378;28;1019;-56
2023/11/27 00:00:56;;;;;;;37.42;22.17;;;14.20;58.50;;;;;;344360;28;1099;-57
2023/11/27 00:01:08;;;;;;;35.00;22.50;;;14.20;58.50;;;;;;344283;28;1024;-57
2023/11/27 00:01:19;;;;;;;35.38;22.30;;;14.20;58.60;;;;;;344208;28;1008;-57
2023/11/27 00:01:30;;;;;;;34.67;22.23;;;14.20;58.60;;;;;;344262;28;1111;-56
2023/11/27 00:01:40;;;;;;;36.35;22.25;;;14.20;58.60;;;;;;344250;28;1581;-58
2023/11/27 00:01:51;;;;;;;36.88;22.20;;;14.20;58.60;;;;;;344321;28;953;-56
2023/11/27 00:02:03;;;;;;;38.65;22.35;;;14.20;58.60;;;;;;344169;28;1025;-57
2023/11/27 00:02:14;;;;;;;37.92;22.17;;;14.20;58.60;;;;;;344277;28;1052;-57
2023/11/27 00:02:25;;;;;;;35.05;22.13;;;14.20;58.60;;;;;;344343;28;850;-58
2023/11/27 00:02:35;;;;;;;35.47;21.77;;;14.20;58.60;;;;;;344288;28;1115;-57
2023/11/27 00:02:46;;;;;;;34.55;21.63;;;14.20;58.70;;;;;;344168;28;1147;-57
2023/11/27 00:02:57;;;;;;;36.95;21.48;;;14.20;58.70;;;;;;344312;28;847;-58
2023/11/27 00:03:08;;;;;;;39.08;21.30;;;14.20;58.70;;;;;;344377;28;917;-57
2023/11/27 00:03:19;;;;;;;38.25;21.85;;;14.20;58.70;;;;;;344393;28;1055;-58
2023/11/27 00:03:30;;;;;;;37.92;23.02;;;14.20;58.70;;;;;;344268;28;1009;-57
2023/11/27 00:03:40;;;;;;;39.40;24.23;;;14.20;58.80;;;;;;344387;28;1426;-57
2023/11/27 00:03:51;;;;;;;41.50;24.37;;;14.20;58.80;;;;;;344400;28;1505;-56
2023/11/27 00:04:02;;;;;;;43.53;25.17;;;14.20;58.80;;;;;;344376;28;984;-56
2023/11/27 00:04:13;;;;;;;40.80;26.60;;;14.20;58.80;;;;;;344375;28;968;-57
2023/11/27 00:04:24;;;;;;;42.28;27.58;;;14.20;58.80;;;;;;344280;28;1005;-57
2023/11/27 00:04:34;;;;;;;42.72;28.70;;;14.20;58.80;;;;;;344408;28;1059;-56
2023/11/27 00:04:45;;;;;;;43.60;27.83;;;14.20;58.90;;;;;;344411;28;1008;-57
2023/11/27 00:04:56;;;;;;;42.50;27.10;;;14.20;58.90;;;;;;344374;28;964;-56
2023/11/27 00:05:07;;;;;;;41.90;25.55;;;14.20;58.90;;;;;;344329;28;956;-56
2023/11/27 00:05:19;;;;;;;40.90;24.85;;;14.20;58.90;;;;;;344404;28;889;-57
2023/11/27 00:05:29;;;;;;;40.08;24.40;;;14.20;58.90;;;;;;344358;28;988;-56
2023/11/27 00:05:40;;;;;;;39.72;24.77;;;14.20;58.90;;;;;;344445;28;960;-57
2023/11/27 00:05:51;;;;;;;40.10;25.70;;;14.20;59.00;;;;;;344374;28;937;-57
2023/11/27 00:06:02;;;;;;;39.53;25.38;;;14.20;59.00;;;;;;344381;28;891;-56
2023/11/27 00:06:12;;;;;;;41.33;24.85;;;14.20;59.00;;;;;;344368;28;992;-56
2023/11/27 00:06:23;;;;;;;37.88;24.02;;;14.20;59.00;;;;;;344367;28;1031;-58
2023/11/27 00:06:34;;;;;;;36.20;23.35;;;14.20;59.00;;;;;;344301;28;949;-56
2023/11/27 00:06:45;;;;;;;37.25;23.63;;;14.20;59.00;;;;;;344343;28;1902;-56
2023/11/27 00:06:55;;;;;;;41.63;23.90;;;14.20;59.00;;;;;;344434;28;851;-57
2023/11/27 00:07:06;;;;;;;43.33;23.85;;;14.20;59.10;;;;;;344348;28;960;-56
2023/11/27 00:07:17;;;;;;;40.63;23.75;;;14.10;59.10;;;;;;344342;28;1071;-56
2023/11/27 00:07:28;;;;;;;39.22;24.10;;;14.20;59.10;;;;;;344367;28;977;-57
2023/11/27 00:07:38;;;;;;;41.65;24.65;;;14.20;59.10;;;;;;344329;28;1124;-56
2023/11/27 00:07:49;;;;;;;40.80;23.85;;;14.20;59.10;;;;;;344434;28;921;-56
2023/11/27 00:08:00;;;;;;;39.47;23.27;;;14.20;59.10;;;;;;344238;28;1084;-57
2023/11/27 00:08:11;;;;;;;38.03;23.60;;;14.20;59.10;;;;;;344351;28;1236;-56
2023/11/27 00:08:22;;;;;;;35.28;23.33;;;14.20;59.20;;;;;;344410;28;821;-56
2023/11/27 00:08:33;;;;;;;35.67;23.38;;;14.20;59.20;;;;;;344333;28;1086;-57
2023/11/27 00:08:44;;;;;;;33.83;22.50;;;14.20;59.20;;;;;;344269;28;1111;-57
2023/11/27 00:08:55;;;;;;;34.78;22.30;;;14.20;59.20;;;;;;344378;28;1119;-57
2023/11/27 00:09:06;;;;;;;33.60;22.13;;;14.10;59.20;;;;;;344389;28;893;-56
2023/11/27 00:09:17;;;;;;;35.12;21.68;;;14.20;59.20;;;;;;344468;28;980;-57
2023/11/27 00:09:28;;;;;;;34.77;20.57;;;14.20;59.10;;;;;;344337;28;1099;-58
2023/11/27 00:09:39;;;;;;;35.03;19.65;;;14.20;59.10;;;;;;344256;28;1214;-57
2023/11/27 00:09:49;;;;;;;33.47;19.95;;;14.20;59.10;;;;;;344395;28;1079;-58
2023/11/27 00:10:00;;;;;;;31.65;19.80;;;14.20;59.10;;;;;;344364;28;1099;-57
2023/11/27 00:10:11;;;;;;;33.58;20.52;;;14.10;59.10;;;;;;344397;28;789;-57
2023/11/27 00:10:22;;;;;;;34.43;20.30;;;14.20;59.10;;;;;;344359;28;1087;-57
2023/11/27 00:10:33;;;;;;;37.13;20.55;;;14.10;59.10;;;;;;344292;28;1575;-57
2023/11/27 00:10:43;;;;;;;34.88;20.50;;;14.10;59.10;;;;;;344380;28;968;-58
2023/11/27 00:10:54;;;;;;;36.47;20.70;;;14.20;59.20;;;;;;344424;28;1077;-58
2023/11/27 00:11:06;;;;;;;36.03;20.75;;;14.20;59.20;;;;;;344354;28;908;-58
2023/11/27 00:11:16;;;;;;;36.53;20.63;;;14.10;59.20;;;;;;344357;28;1437;-57
2023/11/27 00:11:27;;;;;;;33.05;20.65;;;14.20;59.20;;;;;;344255;28;896;-57
2023/11/27 00:11:38;;;;;;;32.67;20.92;;;14.10;59.20;;;;;;344327;28;1068;-57
2023/11/27 00:11:49;;;;;;;32.63;21.15;;;14.10;59.20;;;;;;344401;28;1512;-57
2023/11/27 00:12:02;;;;;;;33.97;21.27;;;14.10;59.20;;;;;;344385;28;1075;-57
2023/11/27 00:12:13;;;;;;;33.45;20.77;;;14.10;59.20;;;;;;344280;28;984;-56
2023/11/27 00:12:23;;;;;;;32.13;19.92;;;14.10;59.30;;;;;;344352;28;1042;-57
2023/11/27 00:12:34;;;;;;;30.37;19.30;;;14.20;59.20;;;;;;344351;28;945;-56
2023/11/27 00:12:45;;;;;;;29.77;18.67;;;14.20;59.30;;;;;;344373;28;862;-56
2023/11/27 00:12:58;;;;;;;33.60;18.83;;;14.10;59.20;;;;;;344380;28;1012;-57
2023/11/27 00:13:09;;;;;;;35.72;19.58;;;14.20;59.30;;;;;;344237;28;1131;-57
2023/11/27 00:13:20;;;;;;;36.00;20.13;;;14.10;59.30;;;;;;344402;28;1043;-56
2023/11/27 00:13:31;;;;;;;35.20;19.95;;;14.10;59.20;;;;;;344390;28;861;-57
2023/11/27 00:13:42;;;;;;;33.60;19.73;;;14.10;59.20;;;;;;344411;28;1024;-57
2023/11/27 00:13:53;;;;;;;31.97;19.73;;;14.10;59.30;;;;;;344279;28;1141;-56
2023/11/27 00:14:06;;;;;;;32.03;19.60;;;14.10;59.30;;;;;;344414;28;992;-56
2023/11/27 00:14:16;;;;;;;32.88;19.70;;;14.10;59.30;;;;;;344335;28;916;-57
2023/11/27 00:14:28;;;;;;;30.92;19.52;;;14.10;59.30;;;;;;344333;28;1009;-58
2023/11/27 00:14:38;;;;;;;36.53;19.88;;;14.10;59.30;;;;;;344333;28;995;-57
2023/11/27 00:14:49;;;;;;;36.80;19.92;;;14.10;59.40;;;;;;344334;28;1186;-58
2023/11/27 00:15:00;;;;;;;39.60;20.00;;;14.10;59.40;;;;;;344293;28;1103;-56
2023/11/27 00:15:11;;;;;;;33.77;20.10;;;14.10;59.40;;;;;;344384;28;845;-57
2023/11/27 00:15:22;;;;;;;35.20;20.33;;;14.10;59.40;;;;;;344341;28;891;-57
2023/11/27 00:15:33;;;;;;;32.47;20.17;;;14.10;59.40;;;;;;344344;28;1040;-57
2023/11/27 00:15:44;;;;;;;31.63;19.52;;;14.10;59.40;;;;;;344266;28;1055;-57
2023/11/27 00:15:55;;;;;;;31.15;19.65;;;14.10;59.40;;;;;;344349;28;1256;-57
2023/11/27 00:16:07;;;;;;;31.50;19.67;;;14.10;59.40;;;;;;344256;28;1064;-57
2023/11/27 00:16:18;;;;;;;32.97;19.92;;;14.10;59.50;;;;;;344393;28;1569;-56
2023/11/27 00:16:28;;;;;;;33.42;20.23;;;14.10;59.50;;;;;;344253;28;976;-56
2023/11/27 00:16:39;;;;;;;33.63;20.27;;;14.10;59.40;;;;;;344367;28;1099;-56
2023/11/27 00:16:50;;;;;;;32.78;19.80;;;14.10;59.40;;;;;;344252;28;1000;-56
2023/11/27 00:17:01;;;;;;;32.20;20.00;;;14.10;59.40;;;;;;344351;28;825;-57
2023/11/27 00:17:12;;;;;;;32.88;20.48;;;14.10;59.40;;;;;;344327;28;1091;-57
2023/11/27 00:17:23;;;;;;;34.47;20.77;;;14.10;59.30;;;;;;344278;28;1016;-57
2023/11/27 00:17:34;;;;;;;35.33;20.98;;;14.10;59.30;;;;;;344345;28;1242;-55
2023/11/27 00:17:45;;;;;;;34.33;21.13;;;14.10;59.30;;;;;;344219;28;1036;-55
2023/11/27 00:17:55;;;;;;;36.80;22.25;;;14.10;59.30;;;;;;344368;28;1021;-57
2023/11/27 00:18:06;;;;;;;40.30;22.48;;;14.10;59.30;;;;;;344263;28;1044;-57
2023/11/27 00:18:17;;;;;;;39.05;21.77;;;14.10;59.30;;;;;;344471;28;841;-57
2023/11/27 00:18:28;;;;;;;37.27;20.50;;;14.10;59.30;;;;;;344404;28;1075;-57
2023/11/27 00:18:39;;;;;;;35.13;20.30;;;14.10;59.30;;;;;;344283;28;1053;-57
2023/11/27 00:18:52;;;;;;;34.47;20.95;;;14.10;59.30;;;;;;344290;28;961;-56
2023/11/27 00:19:03;;;;;;;37.28;21.23;;;14.10;59.30;;;;;;344363;28;1623;-57
2023/11/27 00:19:14;;;;;;;36.83;20.63;;;14.10;59.30;;;;;;344390;28;1008;-57
2023/11/27 00:19:24;;;;;;;35.55;20.33;;;14.10;59.30;;;;;;344298;28;1031;-57
2023/11/27 00:19:35;;;;;;;36.25;20.60;;;14.10;59.30;;;;;;344330;28;1012;-56
2023/11/27 00:19:46;;;;;;;33.92;20.35;;;14.10;59.30;;;;;;344343;28;1005;-56
2023/11/27 00:19:57;;;;;;;31.20;19.70;;;14.10;59.30;;;;;;344338;28;1139;-58
2023/11/27 00:20:09;;;;;;;31.53;19.17;;;14.10;59.30;;;;;;344285;28;1091;-57
2023/11/27 00:20:19;;;;;;;30.05;19.45;;;14.10;59.30;;;;;;344362;28;940;-58
2023/11/27 00:20:30;;;;;;;29.83;19.57;;;14.10;59.20;;;;;;344407;28;860;-57
2023/11/27 00:20:41;;;;;;;28.27;19.48;;;14.10;59.20;;;;;;344348;28;1851;-57
2023/11/27 00:20:52;;;;;;;30.23;19.58;;;14.10;59.20;;;;;;344283;28;1154;-57
2023/11/27 00:21:03;;;;;;;32.80;20.40;;;14.10;59.30;;;;;;344378;28;1016;-57
2023/11/27 00:21:15;;;;;;;34.45;20.75;;;14.10;59.30;;;;;;344375;28;1086;-56
2023/11/27 00:21:26;;;;;;;34.70;20.83;;;14.10;59.30;;;;;;344385;28;929;-57
2023/11/27 00:21:38;;;;;;;36.15;20.63;;;14.10;59.30;;;;;;344286;28;1059;-57
2023/11/27 00:21:49;;;;;;;36.22;20.70;;;14.10;59.30;;;;;;344373;28;880;-57
2023/11/27 00:22:00;;;;;;;35.13;20.35;;;14.10;59.30;;;;;;344366;28;1555;-57
2023/11/27 00:22:11;;;;;;;34.37;19.87;;;14.10;59.30;;;;;;344372;28;1087;-57
2023/11/27 00:22:22;;;;;;;33.80;20.50;;;14.10;59.30;;;;;;344250;28;1044;-57
2023/11/27 00:22:32;;;;;;;35.38;20.90;;;14.10;59.30;;;;;;344349;28;877;-57
2023/11/27 00:22:43;;;;;;;35.17;21.00;;;14.10;59.30;;;;;;344344;28;1040;-57
2023/11/27 00:22:54;;;;;;;34.43;20.37;;;14.10;59.30;;;;;;344329;28;877;-57
2023/11/27 00:23:05;;;;;;;36.35;20.23;;;14.10;59.30;;;;;;344204;28;1008;-58
2023/11/27 00:23:15;;;;;;;37.05;20.15;;;14.10;59.30;;;;;;344337;28;1131;-56
2023/11/27 00:23:26;;;;;;;34.80;20.00;;;14.10;59.30;;;;;;344349;28;1072;-56
2023/11/27 00:23:37;;;;;;;34.22;20.38;;;14.10;59.30;;;;;;344314;28;1031;-56
2023/11/27 00:23:48;;;;;;;34.03;21.17;;;14.10;59.30;;;;;;344283;28;1024;-57
2023/11/27 00:23:59;;;;;;;33.08;21.20;;;14.10;59.30;;;;;;344379;28;1546;-56
2023/11/27 00:24:10;;;;;;;32.50;21.02;;;14.10;59.30;;;;;;344311;28;1139;-58
2023/11/27 00:24:20;;;;;;;34.80;20.90;;;14.10;59.30;;;;;;344254;28;1419;-57
2023/11/27 00:24:31;;;;;;;35.47;21.55;;;14.10;59.30;;;;;;344313;28;992;-57
2023/11/27 00:24:42;;;;;;;34.97;21.48;;;14.10;59.30;;;;;;344366;28;957;-56
2023/11/27 00:24:53;;;;;;;32.03;21.48;;;14.10;59.30;;;;;;344269;28;1003;-57
2023/11/27 00:25:04;;;;;;;32.13;21.27;;;14.10;59.20;;;;;;344350;28;1154;-56
2023/11/27 00:25:15;;;;;;;34.65;21.77;;;14.10;59.20;;;;;;344336;28;988;-57
2023/11/27 00:25:26;;;;;;;38.13;22.08;;;14.10;59.20;;;;;;344309;28;1123;-56
2023/11/27 00:25:38;;;;;;;37.88;21.95;;;14.10;59.20;;;;;;344336;28;922;-58
2023/11/27 00:25:50;;;;;;;36.22;21.60;;;14.10;59.20;;;;;;344281;28;1206;-56
2023/11/27 00:26:01;;;;;;;34.20;21.13;;;14.00;59.20;;;;;;344302;28;865;-56
2023/11/27 00:26:12;;;;;;;34.58;20.88;;;14.10;59.20;;;;;;344280;28;1612;-57
2023/11/27 00:26:23;;;;;;;35.03;21.10;;;14.00;59.20;;;;;;344320;28;1008;-56
2023/11/27 00:26:33;;;;;;;35.90;21.52;;;14.10;59.30;;;;;;344291;28;1043;-59
2023/11/27 00:26:44;;;;;;;34.42;21.20;;;14.10;59.30;;;;;;344288;28;1902;-58
2023/11/27 00:26:55;;;;;;;35.20;21.17;;;14.00;59.30;;;;;;344393;28;992;-57
2023/11/27 00:27:06;;;;;;;31.45;20.65;;;14.00;59.30;;;;;;344313;28;1016;-58
2023/11/27 00:27:17;;;;;;;33.92;21.17;;;14.00;59.30;;;;;;344313;28;1122;-56
2023/11/27 00:27:28;;;;;;;34.78;21.02;;;14.10;59.30;;;;;;344451;28;880;-57
2023/11/27 00:27:39;;;;;;;38.65;21.48;;;14.10;59.30;;;;;;344266;28;1047;-55
2023/11/27 00:27:50;;;;;;;36.73;20.97;;;14.00;59.30;;;;;;344369;28;889;-58
2023/11/27 00:28:01;;;;;;;36.60;21.17;;;14.00;59.40;;;;;;344267;28;1158;-58
2023/11/27 00:28:12;;;;;;;37.10;21.35;;;14.00;59.30;;;;;;344208;28;1209;-57
2023/11/27 00:28:23;;;;;;;38.25;21.23;;;14.00;59.40;;;;;;344322;28;957;-56
2023/11/27 00:28:34;;;;;;;37.53;21.20;;;14.00;59.40;;;;;;344379;28;1084;-58
2023/11/27 00:28:44;;;;;;;35.40;20.83;;;14.00;59.40;;;;;;344276;28;1141;-57
2023/11/27 00:28:55;;;;;;;32.20;20.67;;;14.00;59.40;;;;;;344336;28;1066;-56
2023/11/27 00:29:06;;;;;;;32.33;21.40;;;14.00;59.40;;;;;;344299;28;1166;-58
2023/11/27 00:29:18;;;;;;;34.25;21.67;;;14.00;59.40;;;;;;344259;28;1126;-57
2023/11/27 00:29:28;;;;;;;35.03;22.05;;;14.00;59.40;;;;;;344358;28;1238;-58
2023/11/27 00:29:39;;;;;;;34.70;22.20;;;14.00;59.50;;;;;;344278;28;1407;-57
2023/11/27 00:29:50;;;;;;;34.90;22.67;;;14.00;59.50;;;;;;344296;28;1000;-58
2023/11/27 00:30:01;;;;;;;33.28;21.25;;;14.00;59.50;;;;;;344368;28;786;-57
2023/11/27 00:30:13;;;;;;;32.17;20.45;;;14.00;59.50;;;;;;344252;28;1352;-58
2023/11/27 00:30:24;;;;;;;31.73;20.50;;;14.00;59.50;;;;;;344307;28;1043;-57
2023/11/27 00:30:35;;;;;;;34.65;21.35;;;14.00;59.50;;;;;;344367;28;953;-57
2023/11/27 00:30:46;;;;;;;38.55;22.13;;;13.90;59.50;;;;;;344252;28;1942;-57
2023/11/27 00:30:56;;;;;;;39.67;21.95;;;14.00;59.50;;;;;;344317;28;1091;-57
2023/11/27 00:31:09;;;;;;;38.60;21.45;;;14.00;59.50;;;;;;344335;28;980;-57
2023/11/27 00:31:19;;;;;;;36.72;21.10;;;14.00;59.60;;;;;;344340;28;1089;-56
2023/11/27 00:31:32;;;;;;;35.80;21.67;;;14.00;59.50;;;;;;344195;28;1033;-56
2023/11/27 00:31:43;;;;;;;36.67;22.42;;;14.00;59.50;;;;;;344363;28;1111;-56
2023/11/27 00:31:54;;;;;;;33.40;21.73;;;14.00;59.50;;;;;;344394;28;1006;-57
2023/11/27 00:32:05;;;;;;;32.90;21.13;;;14.00;59.50;;;;;;344246;28;1096;-58
2023/11/27 00:32:16;;;;;;;30.90;20.60;;;14.00;59.50;;;;;;344332;28;933;-56
2023/11/27 00:32:27;;;;;;;33.25;20.80;;;14.00;59.60;;;;;;344384;28;1389;-57
2023/11/27 00:32:38;;;;;;;35.90;21.17;;;14.00;59.50;;;;;;344324;28;1128;-56
2023/11/27 00:32:49;;;;;;;34.35;20.95;;;13.90;59.50;;;;;;344268;28;1018;-56
2023/11/27 00:33:00;;;;;;;34.63;21.33;;;14.00;59.60;;;;;;344391;28;1019;-57
2023/11/27 00:33:11;;;;;;;34.58;21.88;;;14.00;59.50;;;;;;344274;28;1056;-56
2023/11/27 00:33:22;;;;;;;36.33;22.55;;;14.00;59.60;;;;;;344337;28;1301;-56
2023/11/27 00:33:34;;;;;;;34.65;22.40;;;14.00;59.50;;;;;;344377;28;968;-56
2023/11/27 00:33:45;;;;;;;33.55;21.70;;;14.00;59.50;;;;;;344328;28;1022;-57
2023/11/27 00:33:56;;;;;;;36.72;21.63;;;14.00;59.50;;;;;;344345;28;878;-57
2023/11/27 00:34:07;;;;;;;38.70;21.27;;;14.00;59.60;;;;;;344302;28;1099;-56
2023/11/27 00:34:18;;;;;;;38.70;20.95;;;13.90;59.60;;;;;;344304;28;1860;-57
2023/11/27 00:34:28;;;;;;;36.47;21.15;;;14.00;59.60;;;;;;344357;28;1020;-56
2023/11/27 00:34:39;;;;;;;35.58;21.20;;;14.00;59.60;;;;;;344315;28;996;-58
2023/11/27 00:34:50;;;;;;;34.43;21.73;;;13.90;59.60;;;;;;344256;28;1038;-57
2023/11/27 00:35:01;;;;;;;33.60;21.77;;;13.90;59.60;;;;;;344323;28;1039;-57
2023/11/27 00:35:12;;;;;;;36.83;22.30;;;14.00;59.70;;;;;;344275;28;1488;-57
2023/11/27 00:35:22;;;;;;;38.65;22.05;;;13.90;59.70;;;;;;344321;28;1149;-56
2023/11/27 00:35:33;;;;;;;39.03;21.77;;;13.90;59.70;;;;;;344375;28;862;-56
2023/11/27 00:35:44;;;;;;;36.33;21.10;;;13.90;59.70;;;;;;344363;28;944;-56
2023/11/27 00:35:54;;;;;;;35.35;21.02;;;13.90;59.70;;;;;;344370;28;806;-57
2023/11/27 00:36:05;;;;;;;36.22;21.55;;;13.90;59.70;;;;;;344185;28;1473;-56
2023/11/27 00:36:17;;;;;;;36.42;21.35;;;13.90;59.70;;;;;;344350;28;1128;-57
2023/11/27 00:36:28;;;;;;;36.22;21.48;;;13.90;59.70;;;;;;344326;28;1095;-57
2023/11/27 00:36:39;;;;;;;35.72;21.75;;;13.90;59.70;;;;;;344231;28;1164;-57
2023/11/27 00:36:50;;;;;;;35.28;21.95;;;13.90;59.70;;;;;;344340;28;957;-55
2023/11/27 00:37:01;;;;;;;34.75;22.17;;;13.90;59.80;;;;;;344325;28;1138;-57
2023/11/27 00:37:12;;;;;;;33.90;22.23;;;13.90;59.80;;;;;;344225;28;1082;-57
2023/11/27 00:37:22;;;;;;;32.38;21.85;;;13.90;59.70;;;;;;344342;28;1032;-57
2023/11/27 00:37:33;;;;;;;32.83;21.85;;;13.90;59.70;;;;;;344341;28;1399;-57
2023/11/27 00:37:44;;;;;;;34.67;22.13;;;13.90;59.80;;;;;;344259;28;1174;-56
2023/11/27 00:37:55;;;;;;;33.67;22.45;;;13.90;59.80;;;;;;344373;28;1023;-57
2023/11/27 00:38:06;;;;;;;32.35;21.98;;;13.90;59.80;;;;;;344278;28;1178;-58
2023/11/27 00:38:16;;;;;;;31.65;21.20;;;13.90;59.80;;;;;;344273;28;1468;-56
2023/11/27 00:38:27;;;;;;;33.07;20.93;;;13.90;59.80;;;;;;344296;28;1017;-56
2023/11/27 00:38:38;;;;;;;33.47;21.27;;;13.90;59.80;;;;;;344354;28;892;-57
2023/11/27 00:38:49;;;;;;;32.58;21.23;;;13.90;59.80;;;;;;344323;28;900;-57
2023/11/27 00:39:00;;;;;;;32.42;21.38;;;13.90;59.80;;;;;;344300;28;1544;-56
2023/11/27 00:39:11;;;;;;;32.58;21.38;;;13.90;59.80;;;;;;344330;28;1023;-55
2023/11/27 00:39:21;;;;;;;33.45;21.40;;;13.80;59.80;;;;;;344333;28;1087;-57
2023/11/27 00:39:32;;;;;;;34.22;21.25;;;13.80;59.80;;;;;;344335;28;916;-55
2023/11/27 00:39:43;;;;;;;34.00;21.07;;;13.90;59.80;;;;;;344244;28;1969;-56
2023/11/27 00:39:54;;;;;;;36.10;21.43;;;13.80;59.80;;;;;;344372;28;830;-57
2023/11/27 00:40:05;;;;;;;35.17;21.45;;;13.90;59.80;;;;;;344325;28;968;-57
2023/11/27 00:40:17;;;;;;;34.10;20.65;;;13.80;59.90;;;;;;344370;28;1043;-55
2023/11/27 00:40:27;;;;;;;33.38;20.83;;;13.80;59.90;;;;;;344344;28;1189;-56
2023/11/27 00:40:38;;;;;;;34.80;21.05;;;13.80;59.90;;;;;;344245;28;1075;-57
2023/11/27 00:40:49;;;;;;;35.75;21.55;;;13.80;59.90;;;;;;344367;28;965;-56
2023/11/27 00:41:00;;;;;;;37.30;21.60;;;13.80;59.90;;;;;;344329;28;1321;-56
2023/11/27 00:41:14;;;;;;;35.27;21.50;;;13.80;59.90;;;;;;344256;28;1069;-56
2023/11/27 00:41:25;;;;;;;32.72;21.25;;;13.80;59.90;;;;;;344234;28;2000;-57
2023/11/27 00:41:35;;;;;;;30.73;20.70;;;13.80;59.90;;;;;;344329;28;1084;-57
2023/11/27 00:41:46;;;;;;;31.00;20.85;;;13.80;59.90;;;;;;344317;28;1662;-57
2023/11/27 00:41:57;;;;;;;31.45;21.38;;;13.80;59.90;;;;;;344338;28;1059;-56
2023/11/27 00:42:08;;;;;;;34.45;22.05;;;13.80;59.90;;;;;;344338;28;822;-57
2023/11/27 00:42:20;;;;;;;34.88;21.52;;;13.80;59.90;;;;;;344289;28;1076;-57
2023/11/27 00:42:31;;;;;;;34.00;21.45;;;13.80;59.90;;;;;;344353;28;1028;-58
2023/11/27 00:42:42;;;;;;;33.00;21.25;;;13.80;59.90;;;;;;344323;28;1088;-57
2023/11/27 00:42:52;;;;;;;33.22;21.05;;;13.80;59.90;;;;;;344378;28;1000;-56
2023/11/27 00:43:04;;;;;;;32.80;21.35;;;13.80;60.00;;;;;;344356;28;814;-55
2023/11/27 00:43:14;;;;;;;33.53;21.40;;;13.80;60.00;;;;;;344199;28;1237;-57
2023/11/27 00:43:25;;;;;;;33.95;21.33;;;13.80;60.00;;;;;;344260;28;1397;-58
2023/11/27 00:43:36;;;;;;;34.53;21.42;;;13.80;60.00;;;;;;344352;28;956;-56
2023/11/27 00:43:47;;;;;;;35.07;21.53;;;13.80;60.00;;;;;;344309;28;982;-57
2023/11/27 00:43:58;;;;;;;33.53;21.58;;;13.80;60.00;;;;;;344347;28;1300;-56
2023/11/27 00:44:08;;;;;;;32.33;21.50;;;13.80;60.00;;;;;;344146;28;1167;-57
2023/11/27 00:44:19;;;;;;;31.20;21.33;;;13.80;60.00;;;;;;344329;28;1028;-57
2023/11/27 00:44:30;;;;;;;32.13;21.10;;;13.80;60.00;;;;;;344332;28;949;-57
2023/11/27 00:44:40;;;;;;;33.90;21.23;;;13.80;60.00;;;;;;344388;28;833;-57
2023/11/27 00:44:51;;;;;;;34.15;21.25;;;13.80;60.00;;;;;;344166;28;1155;-58
2023/11/27 00:45:02;;;;;;;35.08;21.00;;;13.80;60.10;;;;;;344318;28;1027;-56
2023/11/27 00:45:13;;;;;;;34.88;20.95;;;13.80;60.10;;;;;;344301;28;826;-57
2023/11/27 00:45:24;;;;;;;36.92;21.40;;;13.80;60.10;;;;;;344320;28;984;-58
2023/11/27 00:45:35;;;;;;;35.75;21.48;;;13.80;60.10;;;;;;344254;28;1166;-56
2023/11/27 00:45:46;;;;;;;37.33;21.88;;;13.80;60.10;;;;;;344326;28;1347;-56
2023/11/27 00:45:56;;;;;;;33.43;21.13;;;13.70;60.10;;;;;;344322;28;893;-56
2023/11/27 00:46:08;;;;;;;32.58;21.17;;;13.80;60.10;;;;;;344258;28;896;-58
2023/11/27 00:46:20;;;;;;;31.13;21.00;;;13.80;60.10;;;;;;344233;28;1075;-57
2023/11/27 00:46:31;;;;;;;34.70;21.30;;;13.80;60.10;;;;;;344388;28;826;-57
2023/11/27 00:46:41;;;;;;;37.90;21.40;;;13.70;60.10;;;;;;344196;28;1966;-56
2023/11/27 00:46:52;;;;;;;38.60;21.57;;;13.70;60.10;;;;;;344290;28;953;-57
2023/11/27 00:47:03;;;;;;;39.42;21.48;;;13.70;60.10;;;;;;344173;28;1217;-56
2023/11/27 00:47:14;;;;;;;37.22;21.60;;;13.70;60.10;;;;;;344290;28;1016;-59
2023/11/27 00:47:26;;;;;;;34.13;21.67;;;13.80;60.10;;;;;;344293;28;1036;-56
2023/11/27 00:47:36;;;;;;;33.00;21.60;;;13.70;60.10;;;;;;344279;28;980;-56
2023/11/27 00:47:47;;;;;;;30.92;21.27;;;13.70;60.20;;;;;;344240;28;972;-58
2023/11/27 00:47:59;;;;;;;32.95;21.00;;;13.70;60.20;;;;;;344347;28;1075;-57
2023/11/27 00:48:10;;;;;;;34.45;21.60;;;13.80;60.20;;;;;;344312;28;1004;-57
2023/11/27 00:48:20;;;;;;;35.38;21.50;;;13.80;60.20;;;;;;344321;28;814;-58
2023/11/27 00:48:31;;;;;;;34.05;20.67;;;13.70;60.20;;;;;;344210;28;1256;-57
2023/11/27 00:48:42;;;;;;;31.63;20.30;;;13.70;60.20;;;;;;344280;28;1143;-57
2023/11/27 00:48:53;;;;;;;30.93;20.27;;;13.70;60.20;;;;;;344349;28;829;-57
2023/11/27 00:49:03;;;;;;;29.67;20.80;;;13.70;60.20;;;;;;344286;28;1096;-58
2023/11/27 00:49:14;;;;;;;33.03;21.60;;;13.70;60.30;;;;;;344269;28;881;-56
2023/11/27 00:49:25;;;;;;;36.58;22.27;;;13.70;60.30;;;;;;344315;28;961;-57
2023/11/27 00:49:36;;;;;;;37.80;22.63;;;13.70;60.30;;;;;;344367;28;1016;-57
2023/11/27 00:49:47;;;;;;;34.15;22.33;;;13.70;60.30;;;;;;344232;28;1509;-58
2023/11/27 00:49:57;;;;;;;32.92;22.50;;;13.70;60.30;;;;;;344279;28;1013;-55
2023/11/27 00:50:08;;;;;;;33.70;22.00;;;13.70;60.30;;;;;;344222;28;888;-57
2023/11/27 00:50:19;;;;;;;33.83;21.50;;;13.70;60.30;;;;;;344380;28;830;-56
2023/11/27 00:50:30;;;;;;;34.97;21.42;;;13.70;60.30;;;;;;344283;28;1032;-58
2023/11/27 00:50:42;;;;;;;36.53;22.38;;;13.70;60.30;;;;;;344222;28;1075;-57
2023/11/27 00:50:53;;;;;;;35.92;22.65;;;13.70;60.30;;;;;;344330;28;920;-56
2023/11/27 00:51:07;;;;;;;36.58;23.00;;;13.70;60.30;;;;;;344289;28;972;-56
2023/11/27 00:51:18;;;;;;;35.13;22.27;;;13.70;60.40;;;;;;344386;28;1172;-56
2023/11/27 00:51:29;;;;;;;35.08;21.95;;;13.70;60.40;;;;;;344209;28;881;-57
2023/11/27 00:51:40;;;;;;;34.58;21.45;;;13.70;60.40;;;;;;344341;28;1752;-56
2023/11/27 00:51:50;;;;;;;33.85;20.92;;;13.70;60.40;;;;;;344290;28;1554;-56
2023/11/27 00:52:01;;;;;;;32.53;20.13;;;13.70;60.40;;;;;;344196;28;1716;-57
2023/11/27 00:52:12;;;;;;;32.23;19.57;;;13.70;60.40;;;;;;344329;28;826;-57
2023/11/27 00:52:23;;;;;;;30.35;19.30;;;13.70;60.40;;;;;;344304;28;1241;-56
2023/11/27 00:52:33;;;;;;;31.13;19.33;;;13.70;60.40;;;;;;344200;28;1425;-55
2023/11/27 00:52:44;;;;;;;31.33;19.60;;;13.70;60.40;;;;;;344286;28;1072;-57
2023/11/27 00:52:55;;;;;;;33.10;19.98;;;13.70;60.40;;;;;;344288;28;961;-57
2023/11/27 00:53:06;;;;;;;33.73;20.20;;;13.70;60.40;;;;;;344217;28;1024;-57
2023/11/27 00:53:16;;;;;;;33.00;20.63;;;13.70;60.40;;;;;;344233;28;1186;-56
2023/11/27 00:53:27;;;;;;;33.65;21.38;;;13.70;60.40;;;;;;344262;28;1024;-57
2023/11/27 00:53:38;;;;;;;35.72;22.20;;;13.70;60.40;;;;;;344210;28;1041;-57
2023/11/27 00:53:49;;;;;;;38.92;22.33;;;13.70;60.40;;;;;;344277;28;988;-57
2023/11/27 00:53:59;;;;;;;37.73;21.63;;;13.70;60.40;;;;;;344351;28;1023;-57
2023/11/27 00:54:10;;;;;;;35.45;21.60;;;13.70;60.40;;;;;;344218;28;1040;-58
2023/11/27 00:54:21;;;;;;;35.17;21.02;;;13.70;60.40;;;;;;344287;28;1024;-56
2023/11/27 00:54:32;;;;;;;36.45;21.08;;;13.70;60.40;;;;;;344310;28;1211;-56
2023/11/27 00:54:43;;;;;;;35.50;21.17;;;13.70;60.40;;;;;;344217;28;1326;-57
2023/11/27 00:54:54;;;;;;;34.05;21.77;;;13.70;60.40;;;;;;344297;28;1163;-56
2023/11/27 00:55:05;;;;;;;31.98;21.90;;;13.70;60.40;;;;;;344376;28;1043;-57
2023/11/27 00:55:15;;;;;;;32.97;21.45;;;13.70;60.40;;;;;;344221;28;1171;-56
2023/11/27 00:55:26;;;;;;;34.33;20.80;;;13.70;60.40;;;;;;344263;28;977;-57
2023/11/27 00:55:37;;;;;;;34.78;20.30;;;13.70;60.40;;;;;;344279;28;1008;-56
2023/11/27 00:55:48;;;;;;;35.10;20.00;;;13.70;60.40;;;;;;344229;28;1416;-57
2023/11/27 00:55:59;;;;;;;36.30;20.55;;;13.70;60.40;;;;;;344337;28;965;-56
2023/11/27 00:56:09;;;;;;;34.70;20.60;;;13.70;60.40;;;;;;344229;28;1040;-56
2023/11/27 00:56:20;;;;;;;33.30;21.13;;;13.70;60.40;;;;;;343978;28;1763;-56
2023/11/27 00:56:31;;;;;;;32.50;21.02;;;13.70;60.40;;;;;;344078;28;1004;-57
2023/11/27 00:56:42;;;;;;;34.20;22.33;;;13.70;60.40;;;;;;344067;28;1012;-57
2023/11/27 00:56:53;;;;;;;37.13;23.05;;;13.70;60.40;;;;;;344278;28;1445;-57
2023/11/27 00:57:04;;;;;;;38.60;23.13;;;13.60;60.40;;;;;;344233;28;1442;-58
2023/11/27 00:57:14;;;;;;;38.50;22.45;;;13.60;60.40;;;;;;344319;28;1822;-56